createdAt,value
2023-01-19T00:01:26.013Z,22.20
2023-01-19T00:03:54.479Z,21.53
2023-01-19T00:06:22.982Z,20.60
2023-01-19T00:08:52.825Z,23.57
2023-01-19T00:11:21.441Z,17.73
2023-01-19T00:13:51.336Z,19.60
2023-01-19T00:16:23.267Z,20.33
2023-01-19T00:18:53.437Z,19.43
2023-01-19T00:21:22.718Z,19.50
2023-01-19T00:23:52.895Z,25.60
2023-01-19T00:26:23.183Z,18.03
2023-01-19T00:28:53.140Z,27.07
2023-01-19T00:31:22.031Z,21.40
2023-01-19T00:33:53.033Z,18.77
2023-01-19T00:36:21.794Z,23.13
2023-01-19T00:38:50.268Z,27.37
2023-01-19T00:41:40.320Z,21.43
2023-01-19T00:44:08.049Z,22.37
2023-01-19T00:46:36.530Z,19.37
2023-01-19T00:49:05.145Z,25.27
2023-01-19T00:51:34.663Z,23.73
2023-01-19T00:54:05.065Z,21.50
2023-01-19T00:56:35.493Z,27.47
2023-01-19T00:59:05.108Z,21.20
2023-01-19T01:01:45.262Z,23.63
2023-01-19T01:04:14.976Z,21.93
2023-01-19T01:06:43.296Z,28.97
2023-01-19T01:09:13.092Z,22.50
2023-01-19T01:11:44.135Z,21.40
2023-01-19T01:14:13.904Z,22.43
2023-01-19T01:16:42.880Z,25.67
2023-01-19T01:19:11.382Z,24.70
2023-01-19T01:21:39.945Z,22.20
2023-01-19T01:24:10.043Z,26.57
2023-01-19T01:26:38.540Z,23.87
2023-01-19T01:29:08.898Z,23.47
2023-01-19T01:31:38.089Z,22.73
2023-01-19T01:34:07.348Z,22.87
2023-01-19T01:36:36.216Z,26.20
2023-01-19T01:39:05.536Z,21.67
2023-01-19T01:41:34.469Z,21.37
2023-01-19T01:44:08.299Z,22.70
2023-01-19T01:46:38.251Z,22.27
2023-01-19T01:49:12.040Z,22.80
2023-01-19T01:51:43.660Z,24.20
2023-01-19T01:54:17.909Z,24.13
2023-01-19T01:56:49.352Z,30.10
2023-01-19T01:59:26.870Z,21.60
2023-01-19T02:02:17.127Z,25.33
2023-01-19T02:04:49.240Z,21.30
2023-01-19T02:07:42.086Z,21.90
2023-01-19T02:10:29.126Z,23.10
2023-01-19T02:13:16.308Z,22.90
2023-01-19T02:15:45.920Z,21.40
2023-01-19T02:18:15.899Z,19.23
2023-01-19T02:20:52.332Z,23.80
2023-01-19T02:23:32.965Z,24.57
2023-01-19T02:26:03.182Z,19.03
2023-01-19T02:28:33.468Z,22.13
2023-01-19T02:31:02.110Z,24.53
2023-01-19T02:33:30.850Z,24.13
2023-01-19T02:35:59.595Z,16.90
2023-01-19T02:38:30.577Z,24.77
2023-01-19T02:41:02.406Z,21.47
2023-01-19T02:43:32.662Z,18.37
2023-01-19T02:46:01.461Z,24.03
2023-01-19T02:48:30.330Z,16.93
2023-01-19T02:51:04.579Z,22.67
2023-01-19T02:54:08.734Z,22.93
2023-01-19T02:56:50.969Z,20.93
2023-01-19T02:59:31.163Z,22.77
2023-01-19T03:02:16.692Z,18.23
2023-01-19T03:04:59.618Z,21.07
2023-01-19T03:07:41.584Z,22.87
2023-01-19T03:10:21.761Z,24.27
2023-01-19T03:12:59.419Z,24.90
2023-01-19T03:15:33.948Z,29.80
2023-01-19T03:18:07.491Z,23.07
2023-01-19T03:20:36.479Z,27.13
2023-01-19T03:23:09.549Z,22.63
2023-01-19T03:25:41.931Z,28.27
2023-01-19T03:28:13.334Z,22.50
2023-01-19T03:30:46.794Z,32.10
2023-01-19T03:33:20.616Z,24.93
2023-01-19T03:35:53.422Z,31.00
2023-01-19T03:38:26.387Z,30.27
2023-01-19T03:41:00.204Z,36.47
2023-01-19T03:43:32.180Z,26.13
2023-01-19T03:46:02.381Z,29.03
2023-01-19T03:48:31.651Z,31.63
2023-01-19T03:51:03.873Z,37.43
2023-01-19T03:53:32.208Z,38.30
2023-01-19T03:56:00.961Z,30.23
2023-01-19T03:58:30.755Z,36.97
2023-01-19T04:00:59.273Z,35.60
2023-01-19T04:03:27.859Z,34.50
2023-01-19T04:05:58.376Z,39.73
2023-01-19T04:08:26.786Z,38.77
2023-01-19T04:10:55.273Z,43.70
2023-01-19T04:13:23.552Z,39.47
2023-01-19T04:15:53.996Z,42.80
2023-01-19T04:18:22.283Z,42.97
2023-01-19T04:20:50.747Z,41.03
2023-01-19T04:23:19.244Z,39.17
2023-01-19T04:25:47.671Z,44.50
2023-01-19T04:28:16.148Z,40.07
2023-01-19T04:30:44.683Z,43.27
2023-01-19T04:33:14.422Z,52.90
2023-01-19T04:35:43.257Z,47.67
2023-01-19T04:38:11.727Z,46.17
2023-01-19T04:40:40.726Z,39.70
2023-01-19T04:43:10.097Z,43.23
2023-01-19T04:45:38.640Z,49.00
2023-01-19T04:48:07.592Z,43.20
2023-01-19T04:50:37.267Z,39.83
2023-01-19T04:53:05.774Z,42.53
2023-01-19T04:55:34.077Z,40.20
2023-01-19T04:58:02.371Z,36.83
2023-01-19T05:00:30.676Z,34.60
2023-01-19T05:02:59.815Z,33.93
2023-01-19T05:05:28.722Z,30.80
2023-01-19T05:07:58.466Z,34.97
2023-01-19T05:10:27.014Z,32.20
2023-01-19T05:12:55.460Z,26.07
2023-01-19T05:15:24.247Z,25.80
2023-01-19T05:17:52.962Z,29.10
2023-01-19T05:20:21.360Z,28.13
2023-01-19T05:22:53.785Z,23.67
2023-01-19T05:25:23.490Z,22.00
2023-01-19T05:27:51.884Z,28.80
2023-01-19T05:30:20.759Z,22.90
2023-01-19T05:32:49.305Z,21.50
2023-01-19T05:35:20.193Z,22.13
2023-01-19T05:37:55.631Z,19.33
2023-01-19T05:40:25.826Z,19.07
2023-01-19T05:42:54.272Z,20.03
2023-01-19T05:45:22.667Z,16.97
2023-01-19T05:47:51.081Z,20.30
2023-01-19T05:50:20.095Z,16.47
2023-01-19T05:52:48.727Z,16.70
2023-01-19T05:55:17.434Z,16.77
2023-01-19T05:57:47.288Z,17.43
2023-01-19T06:00:16.987Z,16.47
2023-01-19T06:02:46.710Z,20.23
2023-01-19T06:05:18.153Z,16.60
2023-01-19T06:07:46.610Z,19.13
2023-01-19T06:10:14.994Z,19.47
2023-01-19T06:12:44.176Z,20.80
2023-01-19T06:15:15.295Z,23.10
2023-01-19T06:17:43.794Z,25.93
2023-01-19T06:20:14.125Z,23.53
2023-01-19T06:22:42.475Z,26.10
2023-01-19T06:25:12.005Z,25.00
2023-01-19T06:27:44.247Z,31.13
2023-01-19T06:30:15.363Z,30.60
2023-01-19T06:32:43.798Z,26.23
2023-01-19T06:35:12.422Z,29.63
2023-01-19T06:37:41.653Z,33.53
2023-01-19T06:40:13.732Z,31.23
2023-01-19T06:42:42.886Z,30.73
2023-01-19T06:45:12.232Z,28.10
2023-01-19T06:47:44.820Z,29.63
2023-01-19T06:50:13.294Z,29.77
2023-01-19T06:52:42.791Z,28.73
2023-01-19T06:55:12.153Z,28.17
2023-01-19T06:57:41.080Z,31.47
2023-01-19T07:00:11.791Z,30.77
2023-01-19T07:02:44.425Z,30.63
2023-01-19T07:05:14.637Z,35.90
2023-01-19T07:07:44.912Z,27.73
2023-01-19T07:10:15.796Z,27.93
2023-01-19T07:12:46.598Z,30.53
2023-01-19T07:15:16.021Z,32.17
2023-01-19T07:17:45.802Z,30.20
2023-01-19T07:20:15.144Z,27.50
2023-01-19T07:22:45.835Z,28.63
2023-01-19T07:25:15.026Z,29.37
2023-01-19T07:27:45.028Z,28.77
2023-01-19T07:30:16.179Z,30.43
2023-01-19T07:32:45.983Z,28.20
2023-01-19T07:35:14.637Z,32.33
2023-01-19T07:37:42.991Z,30.50
2023-01-19T07:40:12.605Z,30.30
2023-01-19T07:42:41.018Z,31.87
2023-01-19T07:45:10.577Z,31.33
2023-01-19T07:47:38.950Z,33.90
2023-01-19T07:50:10.443Z,29.60
2023-01-19T07:52:38.817Z,31.53
2023-01-19T07:55:08.154Z,35.47
2023-01-19T07:57:37.213Z,29.13
2023-01-19T08:00:06.722Z,35.17
2023-01-19T08:02:41.291Z,36.30
2023-01-19T08:05:11.340Z,32.13
2023-01-19T08:07:39.792Z,33.60
2023-01-19T08:10:09.230Z,30.30
2023-01-19T08:12:37.743Z,34.57
2023-01-19T08:15:07.350Z,33.97
2023-01-19T08:17:35.992Z,39.63
2023-01-19T08:20:04.958Z,38.30
2023-01-19T08:22:34.732Z,32.63
2023-01-19T08:25:03.254Z,41.50
2023-01-19T08:27:31.763Z,35.80
2023-01-19T08:30:00.239Z,39.33
2023-01-19T08:32:28.633Z,38.53
2023-01-19T08:34:57.035Z,42.57
2023-01-19T08:37:25.735Z,39.50
2023-01-19T08:39:55.441Z,39.80
2023-01-19T08:42:23.721Z,46.93
2023-01-19T08:44:58.202Z,43.10
2023-01-19T08:47:26.809Z,44.50
2023-01-19T08:49:55.228Z,39.67
2023-01-19T08:52:24.773Z,44.33
2023-01-19T08:54:52.988Z,43.23
2023-01-19T08:57:22.780Z,49.43
2023-01-19T08:59:51.098Z,54.07
2023-01-19T09:02:19.619Z,55.83
2023-01-19T09:04:47.992Z,58.47
2023-01-19T09:07:17.587Z,62.03
2023-01-19T09:09:45.968Z,55.30
2023-01-19T09:12:14.826Z,57.53
2023-01-19T09:14:44.603Z,66.73
2023-01-19T09:17:14.672Z,61.30
2023-01-19T09:19:43.210Z,63.50
2023-01-19T09:22:11.614Z,63.37
2023-01-19T09:24:39.986Z,70.77
2023-01-19T09:27:09.123Z,61.57
2023-01-19T09:29:37.443Z,67.77
2023-01-19T09:32:07.637Z,60.53
2023-01-19T09:34:36.184Z,65.17
2023-01-19T09:37:04.986Z,71.33
2023-01-19T09:39:33.432Z,72.47
2023-01-19T09:42:08.043Z,72.70
2023-01-19T09:44:36.833Z,80.50
2023-01-19T09:47:17.652Z,71.13
2023-01-19T09:49:52.435Z,72.70
2023-01-19T09:52:22.460Z,82.90
2023-01-19T09:54:55.350Z,89.53
2023-01-19T09:57:25.177Z,73.57
2023-01-19T09:59:58.055Z,75.40
2023-01-19T10:02:40.200Z,72.20
2023-01-19T10:05:26.356Z,73.87
2023-01-19T10:08:08.681Z,75.00
2023-01-19T10:10:39.386Z,73.57
2023-01-19T10:13:37.733Z,80.60
2023-01-19T10:16:18.931Z,82.10
2023-01-19T10:18:51.765Z,77.60
2023-01-19T10:21:23.759Z,71.07
2023-01-19T10:23:56.763Z,81.23
2023-01-19T10:26:26.799Z,82.87
2023-01-19T10:28:58.940Z,74.40
2023-01-19T10:31:27.522Z,70.93
2023-01-19T10:33:57.475Z,81.13
2023-01-19T10:36:30.563Z,88.93
2023-01-19T10:38:59.562Z,85.10
2023-01-19T10:41:33.255Z,83.70
2023-01-19T10:44:03.466Z,92.17
2023-01-19T10:46:39.778Z,87.43
2023-01-19T10:49:24.900Z,85.70
2023-01-19T10:51:54.083Z,83.63
2023-01-19T10:54:23.515Z,82.57
2023-01-19T10:56:54.754Z,78.53
2023-01-19T10:59:35.648Z,78.67
2023-01-19T11:02:13.947Z,87.57
2023-01-19T11:04:47.268Z,91.37
2023-01-19T11:07:20.615Z,73.87
2023-01-19T11:09:49.762Z,67.83
2023-01-19T11:12:21.220Z,81.37
2023-01-19T11:14:51.780Z,77.73
2023-01-19T11:17:23.793Z,70.80
2023-01-19T11:20:00.567Z,68.83
2023-01-19T11:22:31.416Z,72.50
2023-01-19T11:25:01.610Z,60.40
2023-01-19T11:27:32.108Z,63.77
2023-01-19T11:30:09.877Z,60.53
2023-01-19T11:32:38.314Z,67.90
2023-01-19T11:35:34.840Z,66.43
2023-01-19T11:38:16.779Z,67.33
2023-01-19T11:40:53.873Z,67.30
2023-01-19T11:43:24.410Z,57.17
2023-01-19T11:45:53.195Z,60.13
2023-01-19T11:48:28.378Z,55.13
2023-01-19T11:51:01.631Z,51.63
2023-01-19T11:53:34.042Z,68.17
2023-01-19T11:56:05.885Z,50.10
2023-01-19T11:58:40.156Z,54.07
2023-01-19T12:01:17.796Z,55.03
2023-01-19T12:03:54.780Z,52.47
2023-01-19T12:06:29.102Z,51.67
2023-01-19T12:09:02.559Z,50.50
2023-01-19T12:11:35.840Z,47.80
2023-01-19T12:14:05.745Z,44.40
2023-01-19T12:16:39.441Z,39.60
2023-01-19T12:19:15.812Z,37.67
2023-01-19T12:21:48.259Z,46.23
2023-01-19T12:24:19.657Z,41.83
2023-01-19T12:26:54.523Z,34.93
2023-01-19T12:29:25.921Z,44.67
2023-01-19T12:32:20.324Z,37.63
2023-01-19T12:34:49.939Z,40.23
2023-01-19T12:37:41.640Z,46.03
2023-01-19T12:40:25.441Z,40.87
2023-01-19T12:42:59.898Z,46.73
2023-01-19T12:45:33.388Z,36.13
2023-01-19T12:48:03.095Z,38.07
2023-01-19T12:50:37.806Z,42.47
2023-01-19T12:53:20.766Z,45.47
2023-01-19T12:56:00.169Z,35.10
2023-01-19T12:58:28.928Z,36.73
2023-01-19T13:01:16.187Z,38.83
2023-01-19T13:03:47.754Z,40.13
2023-01-19T13:06:16.145Z,40.90
2023-01-19T13:08:59.959Z,41.83
2023-01-19T13:11:33.353Z,39.30
2023-01-19T13:14:36.631Z,42.47
2023-01-19T13:17:34.277Z,44.80
2023-01-19T13:20:29.275Z,50.67
2023-01-19T13:23:20.095Z,47.40
2023-01-19T13:26:03.643Z,33.57
2023-01-19T13:28:37.164Z,41.83
2023-01-19T13:31:07.135Z,38.93
2023-01-19T13:33:43.763Z,44.83
2023-01-19T13:36:23.895Z,36.87
2023-01-19T13:38:53.419Z,40.60
2023-01-19T13:41:27.100Z,38.53
2023-01-19T13:44:01.320Z,32.23
2023-01-19T13:46:31.601Z,40.03
2023-01-19T13:49:04.331Z,35.30
2023-01-19T13:51:32.644Z,32.10
2023-01-19T13:54:02.868Z,38.93
2023-01-19T13:56:32.689Z,38.40
2023-01-19T13:59:10.425Z,35.33
2023-01-19T14:01:40.786Z,36.13
2023-01-19T14:04:28.157Z,32.17
2023-01-19T14:07:00.136Z,41.90
2023-01-19T14:09:28.731Z,33.20
2023-01-19T14:12:12.195Z,29.93
2023-01-19T14:14:41.072Z,28.33
2023-01-19T14:17:25.154Z,26.70
2023-01-19T14:19:55.211Z,28.87
2023-01-19T14:22:39.197Z,41.17
2023-01-19T14:25:23.052Z,33.17
2023-01-19T14:27:53.092Z,33.67
2023-01-19T14:30:25.207Z,35.37
2023-01-19T14:32:54.412Z,34.53
2023-01-19T14:35:25.951Z,40.60
2023-01-19T14:37:54.384Z,38.00
2023-01-19T14:40:24.619Z,37.27
2023-01-19T14:42:57.432Z,37.63
2023-01-19T14:45:31.848Z,41.60
2023-01-19T14:48:02.779Z,40.33
2023-01-19T14:50:34.120Z,32.93
2023-01-19T14:53:05.266Z,45.03
2023-01-19T14:55:36.660Z,38.87
2023-01-19T14:58:12.296Z,46.20
2023-01-19T15:00:41.020Z,37.63
2023-01-19T15:03:09.981Z,44.70
2023-01-19T15:05:39.040Z,39.57
2023-01-19T15:08:09.063Z,37.70
2023-01-19T15:10:37.624Z,40.43
2023-01-19T15:13:06.050Z,32.23
2023-01-19T15:15:36.936Z,32.37
2023-01-19T15:18:08.244Z,40.03
2023-01-19T15:20:36.587Z,38.77
2023-01-19T15:23:04.994Z,35.20
2023-01-19T15:25:33.571Z,40.30
2023-01-19T15:28:04.225Z,36.97
2023-01-19T15:30:33.692Z,39.50
2023-01-19T15:33:03.604Z,40.90
2023-01-19T15:35:32.284Z,38.90
2023-01-19T15:38:00.639Z,37.10
2023-01-19T15:40:29.270Z,43.30
2023-01-19T15:42:57.721Z,42.03
2023-01-19T15:45:38.636Z,40.17
2023-01-19T15:48:10.343Z,46.03
2023-01-19T15:50:41.093Z,40.80
2023-01-19T15:53:15.039Z,36.97
2023-01-19T15:55:43.565Z,45.33
2023-01-19T15:58:14.066Z,39.30
2023-01-19T16:00:43.173Z,39.10
2023-01-19T16:03:13.114Z,39.43
2023-01-19T16:05:43.253Z,38.77
2023-01-19T16:08:27.109Z,39.43
2023-01-19T16:10:55.742Z,36.50
2023-01-19T16:13:24.942Z,47.80
2023-01-19T16:15:53.315Z,40.10
2023-01-19T16:18:23.227Z,40.57
2023-01-19T16:20:51.721Z,38.13
2023-01-19T16:23:20.166Z,40.17
2023-01-19T16:25:57.103Z,38.57
2023-01-19T16:28:26.206Z,42.57
2023-01-19T16:30:55.111Z,41.97
2023-01-19T16:33:25.156Z,45.00
2023-01-19T16:35:54.413Z,41.60
2023-01-19T16:38:23.512Z,40.90
2023-01-19T16:40:52.048Z,37.43
2023-01-19T16:43:20.539Z,45.60
2023-01-19T16:45:59.252Z,50.43
2023-01-19T16:48:29.550Z,45.03
2023-01-19T16:51:03.378Z,58.37
2023-01-19T16:53:34.442Z,51.07
2023-01-19T16:56:06.493Z,50.50
2023-01-19T16:58:37.524Z,41.60
2023-01-19T17:01:11.280Z,54.70
2023-01-19T17:03:41.316Z,44.03
2023-01-19T17:06:11.956Z,42.57
2023-01-19T17:08:40.957Z,43.13
2023-01-19T17:11:11.632Z,46.10
2023-01-19T17:13:40.502Z,45.77
2023-01-19T17:16:09.679Z,42.03
2023-01-19T17:18:41.652Z,41.87
2023-01-19T17:21:11.671Z,45.77
2023-01-19T17:23:44.060Z,46.70
2023-01-19T17:26:12.716Z,45.63
2023-01-19T17:28:41.652Z,46.60
2023-01-19T17:31:12.430Z,43.10
2023-01-19T17:33:44.853Z,42.50
2023-01-19T17:36:15.456Z,47.47
2023-01-19T17:38:44.361Z,47.90
2023-01-19T17:41:17.784Z,44.63
2023-01-19T17:43:46.492Z,52.57
2023-01-19T17:46:15.499Z,47.40
2023-01-19T17:48:45.590Z,42.67
2023-01-19T17:51:14.630Z,43.90
2023-01-19T17:53:43.931Z,48.90
2023-01-19T17:56:14.254Z,48.90
2023-01-19T17:58:42.976Z,48.50
2023-01-19T18:01:13.336Z,46.87
2023-01-19T18:03:42.349Z,41.63
2023-01-19T18:06:12.643Z,52.53
2023-01-19T18:08:42.875Z,52.53
2023-01-19T18:11:12.377Z,49.80
2023-01-19T18:13:44.544Z,53.57
2023-01-19T18:16:15.394Z,50.57
2023-01-19T18:18:44.236Z,46.73
2023-01-19T18:21:15.474Z,46.43
2023-01-19T18:23:45.218Z,52.67
2023-01-19T18:26:16.070Z,51.93
2023-01-19T18:28:44.714Z,47.47
2023-01-19T18:31:15.508Z,38.77
2023-01-19T18:33:44.389Z,48.50
2023-01-19T18:36:14.382Z,46.73
2023-01-19T18:38:43.107Z,49.83
2023-01-19T18:41:13.431Z,44.90
2023-01-19T18:43:42.157Z,43.17
2023-01-19T18:46:11.600Z,42.80
2023-01-19T18:48:40.925Z,48.10
2023-01-19T18:51:11.122Z,41.27
2023-01-19T18:53:41.589Z,47.47
2023-01-19T18:56:12.894Z,41.30
2023-01-19T18:58:42.170Z,42.47
2023-01-19T19:01:20.970Z,41.77
2023-01-19T19:03:49.835Z,39.13
2023-01-19T19:06:20.869Z,36.93
2023-01-19T19:08:52.210Z,39.63
2023-01-19T19:11:22.262Z,36.00
2023-01-19T19:13:53.609Z,35.43
2023-01-19T19:16:22.250Z,32.00
2023-01-19T19:18:50.839Z,35.40
2023-01-19T19:21:20.636Z,34.23
2023-01-19T19:23:53.244Z,34.17
2023-01-19T19:26:22.030Z,34.53
2023-01-19T19:28:50.526Z,42.47
2023-01-19T19:31:21.047Z,43.97
2023-01-19T19:33:51.212Z,46.57
2023-01-19T19:36:20.329Z,50.40
2023-01-19T19:38:48.874Z,56.07
2023-01-19T19:41:20.880Z,43.93
2023-01-19T19:43:49.467Z,50.77
2023-01-19T19:46:20.278Z,48.93
2023-01-19T19:48:49.811Z,54.60
2023-01-19T19:51:22.649Z,54.57
2023-01-19T19:53:51.977Z,55.03
2023-01-19T19:56:24.087Z,64.13
2023-01-19T19:58:54.982Z,55.90
2023-01-19T20:01:28.069Z,53.80
2023-01-19T20:04:00.011Z,64.20
2023-01-19T20:06:29.927Z,52.10
2023-01-19T20:08:58.482Z,64.27
2023-01-19T20:11:29.138Z,53.73
2023-01-19T20:13:57.547Z,56.27
2023-01-19T20:16:26.280Z,55.00
2023-01-19T20:18:55.369Z,60.27
2023-01-19T20:21:26.026Z,56.20
2023-01-19T20:23:56.026Z,54.67
2023-01-19T20:26:26.871Z,53.60
2023-01-19T20:29:00.192Z,50.13
2023-01-19T20:31:31.486Z,60.13
2023-01-19T20:34:02.945Z,56.90
2023-01-19T20:36:31.861Z,53.67
2023-01-19T20:39:00.462Z,64.67
2023-01-19T20:41:28.970Z,61.83
2023-01-19T20:43:58.883Z,64.70
2023-01-19T20:46:27.382Z,69.70
2023-01-19T20:48:55.809Z,72.27
2023-01-19T20:51:25.944Z,53.93
2023-01-19T20:53:54.693Z,62.40
2023-01-19T20:56:23.411Z,58.30
2023-01-19T20:58:52.044Z,50.57
2023-01-19T21:01:24.277Z,63.83
2023-01-19T21:03:53.646Z,55.87
2023-01-19T21:06:23.088Z,63.27
2023-01-19T21:08:51.756Z,68.60
2023-01-19T21:11:23.995Z,55.20
2023-01-19T21:13:56.159Z,68.77
2023-01-19T21:16:27.320Z,84.80
2023-01-19T21:18:56.155Z,64.67
2023-01-19T21:21:30.896Z,62.23
2023-01-19T21:24:01.135Z,58.23
2023-01-19T21:26:31.136Z,60.97
2023-01-19T21:29:00.495Z,66.17
2023-01-19T21:31:31.137Z,64.23
2023-01-19T21:34:00.114Z,71.03
2023-01-19T21:36:28.711Z,66.20
2023-01-19T21:39:00.884Z,62.10
2023-01-19T21:41:31.159Z,53.43
2023-01-19T21:44:01.753Z,58.47
2023-01-19T21:46:33.356Z,60.73
2023-01-19T21:49:03.935Z,67.13
2023-01-19T21:51:34.875Z,62.63
2023-01-19T21:54:05.073Z,59.30
2023-01-19T21:56:34.698Z,73.73
2023-01-19T21:59:06.375Z,64.50
2023-01-19T22:01:36.769Z,70.60
2023-01-19T22:04:05.743Z,72.10
2023-01-19T22:06:34.804Z,74.33
2023-01-19T22:09:03.612Z,77.77
2023-01-19T22:11:32.135Z,82.73
2023-01-19T22:14:01.024Z,79.57
2023-01-19T22:16:31.008Z,77.47
2023-01-19T22:19:02.501Z,78.27
2023-01-19T22:21:33.188Z,78.00
2023-01-19T22:24:03.083Z,72.83
2023-01-19T22:26:34.143Z,71.97
2023-01-19T22:29:04.338Z,88.93
2023-01-19T22:31:33.154Z,69.50
2023-01-19T22:34:03.161Z,70.73
2023-01-19T22:36:34.073Z,79.50
2023-01-19T22:39:03.975Z,66.03
2023-01-19T22:41:34.213Z,74.47
2023-01-19T22:44:04.651Z,70.60
2023-01-19T22:46:34.655Z,75.07
2023-01-19T22:49:05.286Z,71.60
2023-01-19T22:51:35.520Z,64.20
2023-01-19T22:54:05.014Z,72.93
2023-01-19T22:56:34.711Z,76.23
2023-01-19T22:59:03.929Z,73.87
2023-01-19T23:01:34.226Z,80.37
2023-01-19T23:04:05.554Z,73.07
2023-01-19T23:06:35.927Z,64.10
2023-01-19T23:09:07.235Z,74.43
2023-01-19T23:11:38.570Z,68.67
2023-01-19T23:14:07.720Z,69.17
2023-01-19T23:16:37.379Z,65.87
2023-01-19T23:19:07.598Z,75.17
2023-01-19T23:21:36.976Z,78.80
2023-01-19T23:24:06.024Z,66.10
2023-01-19T23:26:38.253Z,74.20
2023-01-19T23:29:08.538Z,74.33
2023-01-19T23:31:40.160Z,71.87
2023-01-19T23:34:12.153Z,73.23
2023-01-19T23:36:43.737Z,76.60
2023-01-19T23:39:15.992Z,72.83
2023-01-19T23:41:44.448Z,72.33
2023-01-19T23:44:13.146Z,74.40
2023-01-19T23:46:41.677Z,62.03
2023-01-19T23:49:11.540Z,70.63
2023-01-19T23:51:40.859Z,68.77
2023-01-19T23:54:09.233Z,71.00
2023-01-19T23:56:39.053Z,62.03
2023-01-19T23:59:09.966Z,73.00
